Time;durP1;ratioP1;P1;durP2;ratioP2;P2;SDS_P1;SDS_P2;PMS_P1;PMS_P2;Temp;Humidity;BMP_temperature;BMP_pressure;BME280_temperature;BME280_humidity;BME280_pressure;Samples;Min_cycle;Max_cycle;Signal;HPM_P1;HPM_P2
2024/01/25 00:00:24;;;;;;;260.05;237.60;;;;;;;-143.39;100.00;64013.03;4983775;28;20124;-61
2024/01/25 00:02:53;;;;;;;246.05;226.05;;;;;;;-143.39;100.00;64013.03;4975601;28;20065;-60
2024/01/25 00:05:19;;;;;;;221.73;202.50;;;;;;;-143.39;100.00;64013.03;4982704;28;20508;-59
2024/01/25 00:07:47;;;;;;;218.63;199.73;;;;;;;-143.39;100.00;64013.03;4978233;28;20081;-60
2024/01/25 00:10:14;;;;;;;197.07;179.88;;;;;;;-143.39;100.00;64013.03;4979040;28;20047;-60
2024/01/25 00:12:41;;;;;;;240.20;220.68;;;;;;;-143.39;100.00;64013.03;4991365;28;20523;-59
2024/01/25 00:15:09;;;;;;;200.25;183.15;;;;;;;-143.39;100.00;64013.03;4979605;28;20051;-59
2024/01/25 00:17:35;;;;;;;239.02;219.27;;;;;;;-143.39;100.00;64013.03;4980922;28;20065;-58
2024/01/25 00:20:05;;;;;;;263.95;242.85;;;;;;;-143.39;100.00;64013.03;4976716;28;20060;-59
2024/01/25 00:22:32;;;;;;;205.30;187.25;;;;;;;-143.39;100.00;64013.03;4978174;28;20055;-59
2024/01/25 00:24:59;;;;;;;230.52;211.00;;;;;;;-143.39;100.00;64013.03;4980569;28;20398;-59
2024/01/25 00:27:26;;;;;;;221.38;203.25;;;;;;;-143.39;100.00;64013.03;4976749;28;20571;-59
2024/01/25 00:29:53;;;;;;;219.13;201.13;;;;;;;-143.39;100.00;64013.03;4983394;28;20054;-59
2024/01/25 00:32:19;;;;;;;214.15;196.35;;;;;;;-143.39;100.00;64013.03;4983215;28;20516;-61
2024/01/25 00:34:47;;;;;;;234.82;215.88;;;;;;;-143.39;100.00;64013.03;4974805;28;20488;-59
2024/01/25 00:37:16;;;;;;;225.10;206.15;;;;;;;-143.39;100.00;64013.03;4977913;28;20059;-59
2024/01/25 00:39:43;;;;;;;206.38;188.65;;;;;;;-143.39;100.00;64013.03;4981535;28;20050;-59
2024/01/25 00:42:14;;;;;;;220.02;201.75;;;;;;;-143.39;100.00;64013.03;4985377;28;20062;-59
2024/01/25 00:44:41;;;;;;;246.85;226.75;;;;;;;-143.39;100.00;64013.03;4978509;28;20133;-59
2024/01/25 00:47:09;;;;;;;231.07;211.77;;;;;;;-143.39;100.00;64013.03;4989386;28;20058;-59
2024/01/25 00:49:37;;;;;;;215.63;197.10;;;;;;;-143.39;100.00;64013.03;4979443;28;20059;-59
2024/01/25 00:52:04;;;;;;;238.98;219.52;;;;;;;-143.39;100.00;64013.03;4974508;28;20059;-59
2024/01/25 00:54:33;;;;;;;211.98;193.63;;;;;;;-143.39;100.00;64013.03;4973171;28;20544;-59
2024/01/25 00:57:01;;;;;;;298.48;274.60;;;;;;;-143.39;100.00;64013.03;4978894;28;20059;-59
2024/01/25 00:59:28;;;;;;;247.43;227.45;;;;;;;-143.39;100.00;64013.03;4981932;28;20057;-59
2024/01/25 01:01:57;;;;;;;216.98;198.13;;;;;;;-143.39;100.00;64013.03;4975838;28;20142;-59
2024/01/25 01:04:24;;;;;;;215.35;196.15;;;;;;;-143.39;100.00;64013.03;4984350;28;20495;-59
2024/01/25 01:06:52;;;;;;;228.85;209.35;;;;;;;-143.39;100.00;64013.03;4974413;28;20053;-59
2024/01/25 01:09:19;;;;;;;241.77;221.00;;;;;;;-143.39;100.00;64013.03;4970770;28;20513;-59
2024/01/25 01:11:50;;;;;;;229.68;209.23;;;;;;;-143.39;100.00;64013.03;4979553;28;20066;-59
2024/01/25 01:14:17;;;;;;;231.70;211.30;;;;;;;-143.39;100.00;64013.03;4976770;28;20055;-59
2024/01/25 01:16:44;;;;;;;239.75;220.05;;;;;;;-143.39;100.00;64013.03;4981301;28;20384;-59
2024/01/25 01:19:10;;;;;;;248.10;228.10;;;;;;;-143.39;100.00;64013.03;4977230;28;20091;-59
2024/01/25 01:21:38;;;;;;;233.93;214.63;;;;;;;-143.39;100.00;64013.03;4980426;28;20516;-59
2024/01/25 01:24:05;;;;;;;245.23;224.88;;;;;;;-143.39;100.00;64013.03;4980972;28;20051;-58
2024/01/25 01:26:32;;;;;;;234.52;214.73;;;;;;;-143.39;100.00;64013.03;4975595;28;20054;-59
2024/01/25 01:29:00;;;;;;;230.60;210.15;;;;;;;-143.39;100.00;64013.03;4981216;28;20067;-59
2024/01/25 01:31:27;;;;;;;279.85;256.10;;;;;;;-143.39;100.00;64013.03;4978374;28;20061;-59
2024/01/25 01:33:54;;;;;;;288.20;263.02;;;;;;;-143.39;100.00;64013.03;4977263;28;20704;-59
2024/01/25 01:36:21;;;;;;;273.77;248.65;;;;;;;-143.39;100.00;64013.03;4985498;28;20057;-61
2024/01/25 01:38:49;;;;;;;287.10;261.58;;;;;;;-143.39;100.00;64013.03;4979960;28;20531;-61
2024/01/25 01:41:18;;;;;;;301.55;275.35;;;;;;;-143.39;100.00;64013.03;4979161;28;20610;-59
2024/01/25 01:43:46;;;;;;;291.95;268.23;;;;;;;-143.39;100.00;64013.03;4978364;28;20049;-62
2024/01/25 01:46:28;;;;;;;267.95;246.70;;;;;;;-143.39;100.00;64013.03;4981950;28;20050;-61
2024/01/25 01:48:55;;;;;;;248.98;229.98;;;;;;;-143.39;100.00;64013.03;4978783;28;20061;-61
2024/01/25 01:51:22;;;;;;;195.52;181.27;;;;;;;-143.39;100.00;64013.03;4978740;28;20067;-61
2024/01/25 01:53:49;;;;;;;160.23;148.13;;;;;;;-143.39;100.00;64013.03;4978416;28;20433;-61
2024/01/25 01:56:17;;;;;;;144.43;133.82;;;;;;;-143.39;100.00;64013.03;4980187;28;20054;-61
2024/01/25 01:58:46;;;;;;;118.25;109.35;;;;;;;-143.39;100.00;64013.03;4976063;28;20061;-61
2024/01/25 02:01:15;;;;;;;105.43;97.53;;;;;;;-143.39;100.00;64013.03;4975762;28;20060;-61
2024/01/25 02:03:42;;;;;;;97.95;90.68;;;;;;;-143.39;100.00;64013.03;4980681;28;20532;-61
2024/01/25 02:06:09;;;;;;;92.70;85.82;;;;;;;-143.39;100.00;64013.03;4974844;28;20121;-61
2024/01/25 02:08:36;;;;;;;80.53;74.03;;;;;;;-143.39;100.00;64013.03;4977193;28;20120;-61
2024/01/25 02:11:03;;;;;;;88.05;81.47;;;;;;;-143.39;100.00;64013.03;4985843;28;20046;-61
2024/01/25 02:13:30;;;;;;;79.47;73.38;;;;;;;-143.39;100.00;64013.03;4976090;28;20058;-61
2024/01/25 02:15:57;;;;;;;73.03;67.20;;;;;;;-143.39;100.00;64013.03;4979984;28;20405;-61
2024/01/25 02:18:25;;;;;;;70.50;64.90;;;;;;;-143.39;100.00;64013.03;4983344;28;20050;-61
2024/01/25 02:20:52;;;;;;;77.68;71.57;;;;;;;-143.39;100.00;64013.03;4977176;28;20458;-61
2024/01/25 02:23:20;;;;;;;76.35;70.00;;;;;;;-143.39;100.00;64013.03;4981024;28;20051;-61
2024/01/25 02:25:47;;;;;;;70.95;65.25;;;;;;;-143.39;100.00;64013.03;4977154;28;20050;-61
2024/01/25 02:28:14;;;;;;;84.68;78.25;;;;;;;-143.39;100.00;64013.03;4982527;28;20069;-61
2024/01/25 02:30:41;;;;;;;83.15;76.85;;;;;;;-143.39;100.00;64013.03;4977002;28;20046;-61
2024/01/25 02:33:08;;;;;;;79.72;73.85;;;;;;;-143.39;100.00;64013.03;4972101;28;20519;-61
2024/01/25 02:35:35;;;;;;;87.38;80.97;;;;;;;-143.39;100.00;64013.03;4979776;28;20046;-62
2024/01/25 02:38:01;;;;;;;79.10;73.18;;;;;;;-143.39;100.00;64013.03;4968600;28;20545;-61
2024/01/25 02:40:30;;;;;;;75.82;69.93;;;;;;;-143.39;100.00;64013.03;4980787;28;20054;-61
2024/01/25 02:42:57;;;;;;;76.60;70.75;;;;;;;-143.39;100.00;64013.03;4982200;28;20460;-61
2024/01/25 02:45:24;;;;;;;83.95;77.95;;;;;;;-143.39;100.00;64013.03;4980200;28;20444;-61
2024/01/25 02:47:51;;;;;;;83.63;76.88;;;;;;;-143.39;100.00;64013.03;4980800;28;20059;-61
2024/01/25 02:50:18;;;;;;;85.25;78.85;;;;;;;-143.39;100.00;64013.03;4986465;28;20050;-60
2024/01/25 02:52:45;;;;;;;89.50;82.90;;;;;;;-143.39;100.00;64013.03;4976728;28;20051;-60
2024/01/25 02:55:11;;;;;;;80.50;74.60;;;;;;;-143.39;100.00;64013.03;4981867;28;20058;-60
2024/01/25 02:57:43;;;;;;;97.75;90.97;;;;;;;-143.39;100.00;64013.03;4975481;28;20516;-60
2024/01/25 03:00:13;;;;;;;80.85;74.90;;;;;;;-143.39;100.00;64013.03;4981089;28;20137;-59
2024/01/25 03:02:40;;;;;;;88.35;81.75;;;;;;;-143.39;100.00;64013.03;4975418;28;20062;-60
2024/01/25 03:05:07;;;;;;;97.95;90.97;;;;;;;-143.39;100.00;64013.03;4976347;28;20453;-60
2024/01/25 03:07:34;;;;;;;98.25;91.32;;;;;;;-143.39;100.00;64013.03;4980523;28;20057;-60
2024/01/25 03:10:02;;;;;;;94.20;87.72;;;;;;;-143.39;100.00;64013.03;4978427;28;20525;-60
2024/01/25 03:12:28;;;;;;;91.63;85.28;;;;;;;-143.39;100.00;64013.03;4981563;28;20058;-59
2024/01/25 03:14:56;;;;;;;81.05;75.45;;;;;;;-143.39;100.00;64013.03;4971945;28;20062;-59
2024/01/25 03:17:23;;;;;;;83.78;77.90;;;;;;;-143.39;100.00;64013.03;4974216;28;20051;-59
2024/01/25 03:19:50;;;;;;;80.10;74.40;;;;;;;-143.39;100.00;64013.03;4982123;28;20065;-59
2024/01/25 03:22:17;;;;;;;101.97;94.30;;;;;;;-143.39;100.00;64013.03;4986687;28;20065;-59
2024/01/25 03:24:44;;;;;;;99.00;91.80;;;;;;;-143.39;100.00;64013.03;4988885;28;20440;-59
2024/01/25 03:27:13;;;;;;;91.15;84.43;;;;;;;-143.39;100.00;64013.03;4975479;28;20067;-59
2024/01/25 03:29:42;;;;;;;105.53;98.43;;;;;;;-143.39;100.00;64013.03;4977513;28;20054;-59
2024/01/25 03:32:11;;;;;;;93.22;86.72;;;;;;;-143.39;100.00;64013.03;4974904;28;20050;-59
2024/01/25 03:34:38;;;;;;;96.70;89.90;;;;;;;-143.39;100.00;64013.03;4978366;28;20057;-59
2024/01/25 03:37:05;;;;;;;98.63;91.45;;;;;;;-143.39;100.00;64013.03;4978519;28;20058;-59
2024/01/25 03:39:32;;;;;;;104.13;96.55;;;;;;;-143.39;100.00;64013.03;4984017;28;20050;-59
2024/01/25 03:41:59;;;;;;;104.75;97.28;;;;;;;-143.39;100.00;64013.03;4976731;28;20055;-59
2024/01/25 03:44:26;;;;;;;103.28;95.75;;;;;;;-143.39;100.00;64013.03;4983992;28;20411;-59
2024/01/25 03:46:52;;;;;;;96.68;89.68;;;;;;;-143.39;100.00;64013.03;4969648;28;20515;-59
2024/01/25 03:49:22;;;;;;;109.53;101.47;;;;;;;-143.39;100.00;64013.03;4984124;28;20061;-59
2024/01/25 03:51:50;;;;;;;123.50;114.78;;;;;;;-143.39;100.00;64013.03;4982014;28;20054;-59
2024/01/25 03:54:18;;;;;;;143.25;133.07;;;;;;;-143.39;100.00;64013.03;4979529;28;20081;-59
2024/01/25 03:56:44;;;;;;;128.73;119.72;;;;;;;-143.39;100.00;64013.03;4986625;28;20417;-59
2024/01/25 03:59:13;;;;;;;131.10;121.70;;;;;;;-143.39;100.00;64013.03;4980336;28;20440;-59
2024/01/25 04:01:44;;;;;;;124.22;115.22;;;;;;;-143.39;100.00;64013.03;4977825;28;20050;-59
2024/01/25 04:04:12;;;;;;;131.57;122.00;;;;;;;-143.39;100.00;64013.03;4978967;28;20057;-59
2024/01/25 04:06:42;;;;;;;128.77;119.38;;;;;;;-143.39;100.00;64013.03;4975887;28;20054;-59
2024/01/25 04:09:09;;;;;;;139.43;129.20;;;;;;;-143.39;100.00;64013.03;4982434;28;20058;-59
2024/01/25 04:11:36;;;;;;;132.40;122.43;;;;;;;-143.39;100.00;64013.03;4993687;28;20374;-59
2024/01/25 04:14:02;;;;;;;135.48;125.45;;;;;;;-143.39;100.00;64013.03;4978745;28;20181;-59
2024/01/25 04:16:29;;;;;;;138.55;128.38;;;;;;;-143.39;100.00;64013.03;4982849;28;20409;-59
2024/01/25 04:18:56;;;;;;;125.60;116.38;;;;;;;-143.39;100.00;64013.03;4982869;28;20054;-59
2024/01/25 04:21:23;;;;;;;117.07;108.40;;;;;;;-143.39;100.00;64013.03;4982907;28;20047;-61
2024/01/25 04:23:51;;;;;;;120.25;111.40;;;;;;;-143.39;100.00;64013.03;4979966;28;20432;-61
2024/01/25 04:26:18;;;;;;;130.85;121.28;;;;;;;-143.39;100.00;64013.03;4983669;28;20451;-61
2024/01/25 04:28:45;;;;;;;129.80;120.47;;;;;;;-143.39;100.00;64013.03;4993724;28;20057;-61
2024/01/25 04:31:12;;;;;;;126.53;116.75;;;;;;;-143.39;100.00;64013.03;4982506;28;20061;-61
2024/01/25 04:33:40;;;;;;;137.20;126.88;;;;;;;-143.39;100.00;64013.03;4987436;28;20416;-61
2024/01/25 04:36:07;;;;;;;128.15;118.32;;;;;;;-143.39;100.00;64013.03;4971085;28;20363;-61
2024/01/25 04:38:34;;;;;;;122.68;113.05;;;;;;;-143.39;100.00;64013.03;4978989;28;20054;-61
2024/01/25 04:41:02;;;;;;;135.02;125.03;;;;;;;-143.39;100.00;64013.03;4996546;28;20060;-61
2024/01/25 04:43:29;;;;;;;124.90;115.25;;;;;;;-143.39;100.00;64013.03;4982319;28;20052;-61
2024/01/25 04:45:56;;;;;;;122.43;113.05;;;;;;;-143.39;100.00;64013.03;4986405;28;20050;-61
2024/01/25 04:48:23;;;;;;;132.27;122.22;;;;;;;-143.39;100.00;64013.03;4989054;28;20050;-61
2024/01/25 04:50:49;;;;;;;140.25;129.43;;;;;;;-143.39;100.00;64013.03;4993446;28;20057;-61
2024/01/25 04:53:17;;;;;;;136.63;126.28;;;;;;;-143.39;100.00;64013.03;4995673;28;20531;-61
2024/01/25 04:55:44;;;;;;;147.00;135.88;;;;;;;-143.39;100.00;64013.03;4980435;28;20050;-61
2024/01/25 04:58:12;;;;;;;160.50;147.95;;;;;;;-143.39;100.00;64013.03;4980350;28;20051;-61
2024/01/25 05:00:39;;;;;;;156.43;143.82;;;;;;;-143.39;100.00;64013.03;4986994;28;20144;-61
2024/01/25 05:03:06;;;;;;;166.82;153.23;;;;;;;-143.39;100.00;64013.03;4982981;28;20145;-59
2024/01/25 05:05:33;;;;;;;179.07;164.68;;;;;;;-143.39;100.00;64013.03;4975928;28;20436;-60
2024/01/25 05:08:00;;;;;;;188.25;173.52;;;;;;;-143.39;100.00;64013.03;4975970;28;20061;-59
2024/01/25 05:10:27;;;;;;;190.00;175.32;;;;;;;-143.39;100.00;64013.03;4984868;28;20335;-61
2024/01/25 05:12:54;;;;;;;162.95;149.68;;;;;;;-143.39;100.00;64013.03;4970132;28;20416;-61
2024/01/25 05:15:22;;;;;;;173.93;160.02;;;;;;;-143.39;100.00;64013.03;4970234;28;20046;-61
2024/01/25 05:17:49;;;;;;;185.48;170.77;;;;;;;-143.39;100.00;64013.03;4978022;28;20417;-61
2024/01/25 05:20:17;;;;;;;200.55;185.65;;;;;;;-143.39;100.00;64013.03;4976765;28;20058;-61
2024/01/25 05:22:45;;;;;;;190.50;175.95;;;;;;;-143.39;100.00;64013.03;4979801;28;20058;-59
2024/01/25 05:25:12;;;;;;;173.38;159.45;;;;;;;-143.39;100.00;64013.03;4978428;28;20459;-59
2024/01/25 05:27:39;;;;;;;194.70;179.10;;;;;;;-143.39;100.00;64013.03;4982253;28;20058;-59
2024/01/25 05:30:09;;;;;;;207.90;192.05;;;;;;;-143.39;100.00;64013.03;4974490;28;20282;-59
2024/01/25 05:32:38;;;;;;;204.13;188.32;;;;;;;-143.39;100.00;64013.03;4976486;28;20089;-59
2024/01/25 05:35:05;;;;;;;200.05;184.50;;;;;;;-143.39;100.00;64013.03;4972024;28;20054;-59
2024/01/25 05:37:32;;;;;;;188.93;173.98;;;;;;;-143.39;100.00;64013.03;4976144;28;20089;-59
2024/01/25 05:39:59;;;;;;;177.82;163.43;;;;;;;-143.39;100.00;64013.03;4977479;28;20055;-59
2024/01/25 05:42:26;;;;;;;175.73;161.60;;;;;;;-143.39;100.00;64013.03;4983007;28;20066;-59
2024/01/25 05:44:53;;;;;;;186.02;171.55;;;;;;;-143.39;100.00;64013.03;4976473;28;20517;-59
2024/01/25 05:47:19;;;;;;;191.35;176.05;;;;;;;-143.39;100.00;64013.03;4976138;28;20058;-59
2024/01/25 05:49:48;;;;;;;175.48;160.88;;;;;;;-143.39;100.00;64013.03;4977891;28;20138;-58
2024/01/25 05:52:16;;;;;;;178.38;163.88;;;;;;;-143.39;100.00;64013.03;4978166;28;20055;-59
2024/01/25 05:54:43;;;;;;;176.48;161.57;;;;;;;-143.39;100.00;64013.03;4980684;28;20060;-59
2024/01/25 05:57:10;;;;;;;189.13;172.85;;;;;;;-143.39;100.00;64013.03;4980726;28;20050;-59
2024/01/25 05:59:38;;;;;;;191.52;175.57;;;;;;;-143.39;100.00;64013.03;4977080;28;20514;-59
2024/01/25 06:02:05;;;;;;;193.50;177.90;;;;;;;-143.39;100.00;64013.03;4978040;28;20054;-59
2024/01/25 06:04:32;;;;;;;205.05;188.70;;;;;;;-143.39;100.00;64013.03;4979200;28;20075;-59
2024/01/25 06:07:00;;;;;;;199.20;182.82;;;;;;;-143.39;100.00;64013.03;4977664;28;20063;-59
2024/01/25 06:09:27;;;;;;;189.45;173.40;;;;;;;-143.39;100.00;64013.03;4980736;28;20073;-58
2024/01/25 06:11:54;;;;;;;207.30;190.30;;;;;;;-143.39;100.00;64013.03;4977825;28;20054;-58
2024/01/25 06:14:21;;;;;;;196.30;180.38;;;;;;;-143.39;100.00;64013.03;4979532;28;20055;-59
2024/01/25 06:16:48;;;;;;;206.70;189.38;;;;;;;-143.39;100.00;64013.03;4977635;28;20050;-59
2024/01/25 06:19:15;;;;;;;200.38;183.23;;;;;;;-143.39;100.00;64013.03;4980499;28;20043;-59
2024/01/25 06:21:42;;;;;;;217.10;199.77;;;;;;;-143.39;100.00;64013.03;4983496;28;20435;-58
2024/01/25 06:24:10;;;;;;;187.38;171.57;;;;;;;-143.39;100.00;64013.03;4984391;28;20050;-61
2024/01/25 06:26:37;;;;;;;208.75;191.95;;;;;;;-143.39;100.00;64013.03;4985295;28;20054;-61
2024/01/25 06:29:04;;;;;;;199.43;182.98;;;;;;;-143.39;100.00;64013.03;4980377;28;20047;-61
2024/01/25 06:31:31;;;;;;;199.30;183.30;;;;;;;-143.39;100.00;64013.03;4985575;28;20431;-61
2024/01/25 06:33:57;;;;;;;188.23;172.32;;;;;;;-143.39;100.00;64013.03;4985477;28;20050;-61
2024/01/25 06:36:24;;;;;;;221.45;204.00;;;;;;;-143.39;100.00;64013.03;4978890;28;20042;-61
2024/01/25 06:38:51;;;;;;;242.05;223.20;;;;;;;-143.39;100.00;64013.03;4984172;28;20043;-61
2024/01/25 06:41:19;;;;;;;235.48;216.20;;;;;;;-143.39;100.00;64013.03;4978874;28;20508;-61
2024/01/25 06:43:49;;;;;;;257.02;237.05;;;;;;;-143.39;100.00;64013.03;4978149;28;20443;-61
2024/01/25 06:46:15;;;;;;;231.70;213.32;;;;;;;-143.39;100.00;64013.03;4974791;28;20057;-61
2024/01/25 06:48:42;;;;;;;260.67;240.10;;;;;;;-143.39;100.00;64013.03;4978733;28;20058;-61
2024/01/25 06:51:09;;;;;;;264.55;242.82;;;;;;;-143.39;100.00;64013.03;4983527;28;20460;-61
2024/01/25 06:53:36;;;;;;;285.02;261.58;;;;;;;-143.39;100.00;64013.03;4978360;28;20050;-61
2024/01/25 06:56:03;;;;;;;266.42;245.05;;;;;;;-143.39;100.00;64013.03;4985983;28;20061;-59
2024/01/25 06:58:31;;;;;;;266.77;244.60;;;;;;;-143.39;100.00;64013.03;4978154;28;20058;-61
2024/01/25 07:00:58;;;;;;;266.48;244.30;;;;;;;-143.39;100.00;64013.03;4980368;28;20058;-61
2024/01/25 07:03:25;;;;;;;279.13;256.33;;;;;;;-143.39;100.00;64013.03;4988591;28;20137;-61
2024/01/25 07:05:51;;;;;;;290.83;267.23;;;;;;;-143.39;100.00;64013.03;4979144;28;20051;-61
2024/01/25 07:08:18;;;;;;;300.15;275.65;;;;;;;-143.39;100.00;64013.03;4979981;28;20054;-61
2024/01/25 07:10:46;;;;;;;290.40;266.40;;;;;;;-143.39;100.00;64013.03;4985032;28;20080;-61
2024/01/25 07:13:13;;;;;;;298.23;273.83;;;;;;;-143.39;100.00;64013.03;4985019;28;20038;-61
2024/01/25 07:15:41;;;;;;;295.88;270.50;;;;;;;-143.39;100.00;64013.03;4978263;28;20080;-61
2024/01/25 07:18:07;;;;;;;310.02;284.55;;;;;;;-143.39;100.00;64013.03;4982187;28;20061;-61
2024/01/25 07:20:35;;;;;;;303.63;278.48;;;;;;;-143.39;100.00;64013.03;4974258;28;20061;-61
2024/01/25 07:23:02;;;;;;;304.42;280.05;;;;;;;-143.39;100.00;64013.03;4981403;28;20145;-61
2024/01/25 07:25:29;;;;;;;300.70;276.90;;;;;;;-143.39;100.00;64013.03;4984608;28;20455;-61
2024/01/25 07:27:56;;;;;;;288.75;266.10;;;;;;;-143.39;100.00;64013.03;4978390;28;20050;-60
2024/01/25 07:30:22;;;;;;;268.30;246.35;;;;;;;-143.39;100.00;64013.03;4978340;28;20054;-60
2024/01/25 07:32:51;;;;;;;255.68;235.52;;;;;;;-143.39;100.00;64013.03;4980826;28;20098;-60
2024/01/25 07:35:18;;;;;;;250.02;230.80;;;;;;;-143.39;100.00;64013.03;4978237;28;20555;-61
2024/01/25 07:37:45;;;;;;;241.55;222.75;;;;;;;-143.39;100.00;64013.03;4976672;28;20042;-61
2024/01/25 07:40:12;;;;;;;237.65;218.98;;;;;;;-143.39;100.00;64013.03;4979930;28;20065;-61
2024/01/25 07:42:39;;;;;;;234.93;216.73;;;;;;;-143.39;100.00;64013.03;4974276;28;20432;-61
2024/01/25 07:45:07;;;;;;;235.57;218.00;;;;;;;-143.39;100.00;64013.03;4981649;28;20050;-61
2024/01/25 07:47:34;;;;;;;225.95;209.05;;;;;;;-143.39;100.00;64013.03;4983397;28;20046;-61
2024/01/25 07:50:03;;;;;;;222.73;206.93;;;;;;;-143.39;100.00;64013.03;4982803;28;20144;-59
2024/01/25 07:52:30;;;;;;;222.65;207.30;;;;;;;-143.39;100.00;64013.03;4971895;28;20050;-59
2024/01/25 07:54:57;;;;;;;223.48;208.52;;;;;;;-143.39;100.00;64013.03;4972109;28;20441;-60
2024/01/25 07:57:24;;;;;;;211.27;196.88;;;;;;;-143.39;100.00;64013.03;4976242;28;20051;-60
2024/01/25 07:59:51;;;;;;;192.75;179.60;;;;;;;-143.39;100.00;64013.03;4971653;28;20057;-59
2024/01/25 08:02:19;;;;;;;211.18;197.23;;;;;;;-143.39;100.00;64013.03;4973568;28;20058;-59
2024/01/25 08:04:45;;;;;;;206.18;192.07;;;;;;;-143.39;100.00;64013.03;4974542;28;20049;-61
2024/01/25 08:07:14;;;;;;;188.00;175.60;;;;;;;-143.39;100.00;64013.03;4974468;28;20046;-62
2024/01/25 08:09:41;;;;;;;177.43;166.02;;;;;;;-143.39;100.00;64013.03;4974358;28;20057;-61
2024/01/25 08:12:08;;;;;;;179.63;168.13;;;;;;;-143.39;100.00;64013.03;4973613;28;20055;-61
2024/01/25 08:14:34;;;;;;;183.27;171.70;;;;;;;-143.39;100.00;64013.03;4969277;28;20050;-61
2024/01/25 08:17:01;;;;;;;141.38;132.52;;;;;;;-143.39;100.00;64013.03;4978211;28;20503;-61
2024/01/25 08:19:28;;;;;;;124.07;116.18;;;;;;;-143.39;100.00;64013.03;4980052;28;20051;-61
2024/01/25 08:21:55;;;;;;;105.00;98.25;;;;;;;-143.39;100.00;64013.03;4980431;28;20046;-62
2024/01/25 08:24:23;;;;;;;129.13;120.72;;;;;;;-143.39;100.00;64013.03;4982651;28;20058;-62
2024/01/25 08:26:50;;;;;;;143.80;134.73;;;;;;;-143.39;100.00;64013.03;4980507;28;20050;-61
2024/01/25 08:29:20;;;;;;;128.25;120.00;;;;;;;-143.39;100.00;64013.03;4985184;28;20058;-61
2024/01/25 08:31:47;;;;;;;127.25;119.35;;;;;;;-143.39;100.00;64013.03;4985968;28;20455;-61
2024/01/25 08:34:14;;;;;;;136.07;127.28;;;;;;;-143.39;100.00;64013.03;4979535;28;20054;-61
2024/01/25 08:36:42;;;;;;;136.65;128.18;;;;;;;-143.39;100.00;64013.03;4980752;28;20054;-62
2024/01/25 08:39:09;;;;;;;155.32;144.80;;;;;;;-143.39;100.00;64013.03;4975885;28;20591;-61
2024/01/25 08:41:37;;;;;;;148.43;138.93;;;;;;;-143.39;100.00;64013.03;4980379;28;20481;-61
2024/01/25 08:44:04;;;;;;;150.10;140.43;;;;;;;-143.39;100.00;64013.03;4973304;28;20061;-60
2024/01/25 08:46:31;;;;;;;141.52;132.52;;;;;;;-143.39;100.00;64013.03;4974096;28;20074;-61
2024/01/25 08:48:58;;;;;;;150.70;140.80;;;;;;;-143.39;100.00;64013.03;4979168;28;20061;-59
2024/01/25 08:51:25;;;;;;;142.10;132.20;;;;;;;-143.39;100.00;64013.03;4973241;28;20054;-59
2024/01/25 08:53:52;;;;;;;158.35;148.07;;;;;;;-143.39;100.00;64013.03;4976176;28;20060;-59
2024/01/25 08:56:18;;;;;;;135.32;126.07;;;;;;;-143.39;100.00;64013.03;4971038;28;20050;-59
2024/01/25 08:58:50;;;;;;;160.23;149.65;;;;;;;-143.39;100.00;64013.03;4980378;28;20472;-59
2024/01/25 09:01:17;;;;;;;163.32;152.50;;;;;;;-143.39;100.00;64013.03;4971879;28;20078;-59
2024/01/25 09:03:44;;;;;;;153.63;143.65;;;;;;;-143.39;100.00;64013.03;4975305;28;20042;-59
2024/01/25 09:06:10;;;;;;;142.77;133.50;;;;;;;-143.39;100.00;64013.03;4977591;28;20414;-59
2024/01/25 09:08:37;;;;;;;143.68;134.32;;;;;;;-143.39;100.00;64013.03;4978729;28;20449;-59
2024/01/25 09:11:05;;;;;;;129.57;121.57;;;;;;;-143.39;100.00;64013.03;4979029;28;20054;-59
2024/01/25 09:13:32;;;;;;;141.70;132.48;;;;;;;-143.39;100.00;64013.03;4980502;28;20054;-59
2024/01/25 09:16:00;;;;;;;137.35;128.98;;;;;;;-143.39;100.00;64013.03;4979757;28;20165;-59
2024/01/25 09:18:27;;;;;;;150.30;140.85;;;;;;;-143.39;100.00;64013.03;4969725;28;20056;-59
2024/01/25 09:20:54;;;;;;;164.45;154.35;;;;;;;-143.39;100.00;64013.03;4978854;28;20073;-59
2024/01/25 09:23:21;;;;;;;150.07;140.70;;;;;;;-143.39;100.00;64013.03;4973402;28;20487;-59
2024/01/25 09:25:47;;;;;;;137.57;129.07;;;;;;;-143.39;100.00;64013.03;4975593;28;20074;-61
2024/01/25 09:28:14;;;;;;;143.60;134.27;;;;;;;-143.39;100.00;64013.03;4974691;28;20408;-59
2024/01/25 09:30:41;;;;;;;152.90;143.13;;;;;;;-143.39;100.00;64013.03;4978146;28;20062;-59
2024/01/25 09:33:09;;;;;;;151.82;142.52;;;;;;;-143.39;100.00;64013.03;4983390;28;20050;-61
2024/01/25 09:35:36;;;;;;;159.25;149.30;;;;;;;-143.39;100.00;64013.03;4972771;28;20054;-61
2024/01/25 09:38:03;;;;;;;161.35;150.95;;;;;;;-143.39;100.00;64013.03;4978739;28;20046;-61
2024/01/25 09:40:31;;;;;;;141.68;132.68;;;;;;;-143.39;100.00;64013.03;4986471;28;20069;-61
2024/01/25 09:42:58;;;;;;;145.77;136.52;;;;;;;-143.39;100.00;64013.03;4982494;28;20058;-61
2024/01/25 09:45:25;;;;;;;121.63;113.90;;;;;;;-143.39;100.00;64013.03;4976575;28;20053;-59
2024/01/25 09:47:52;;;;;;;98.30;92.10;;;;;;;-143.39;100.00;64013.03;4972960;28;20073;-61
2024/01/25 09:50:21;;;;;;;101.90;95.50;;;;;;;-143.39;100.00;64013.03;4981896;28;20081;-61
2024/01/25 09:52:55;;;;;;;133.32;125.20;;;;;;;-143.39;100.00;64013.03;4983446;28;20128;-59
2024/01/25 09:55:26;;;;;;;111.78;104.75;;;;;;;-143.39;100.00;64013.03;4972360;28;20049;-59
2024/01/25 09:57:55;;;;;;;116.38;109.10;;;;;;;-143.39;100.00;64013.03;4978337;28;20508;-59
2024/01/25 10:00:22;;;;;;;108.85;102.15;;;;;;;-143.39;100.00;64013.03;4981163;28;20054;-59
2024/01/25 10:02:49;;;;;;;88.13;82.70;;;;;;;-143.39;100.00;64013.03;4975938;28;20547;-59
2024/01/25 10:05:20;;;;;;;124.78;117.28;;;;;;;-143.39;100.00;64013.03;4976127;28;20086;-59
2024/01/25 10:07:47;;;;;;;124.78;117.47;;;;;;;-143.39;100.00;64013.03;4975035;28;20051;-59
2024/01/25 10:10:14;;;;;;;128.82;121.32;;;;;;;-143.39;100.00;64013.03;4977331;28;20058;-59
2024/01/25 10:12:42;;;;;;;108.47;102.18;;;;;;;-143.39;100.00;64013.03;4983887;28;20057;-61
2024/01/25 10:15:10;;;;;;;131.85;123.63;;;;;;;-143.39;100.00;64013.03;4984009;28;20061;-61
2024/01/25 10:17:37;;;;;;;89.25;83.95;;;;;;;-143.39;100.00;64013.03;4984607;28;20046;-59
2024/01/25 10:20:07;;;;;;;109.25;102.72;;;;;;;-143.39;100.00;64013.03;4979427;28;20451;-59
2024/01/25 10:22:35;;;;;;;81.97;76.97;;;;;;;-143.39;100.00;64013.03;4977851;28;20054;-59
2024/01/25 10:25:03;;;;;;;117.40;110.60;;;;;;;-143.39;100.00;64013.03;4977593;28;20141;-60
2024/01/25 10:27:30;;;;;;;105.53;99.13;;;;;;;-143.39;100.00;64013.03;4976109;28;20042;-60
2024/01/25 10:29:57;;;;;;;111.80;105.05;;;;;;;-143.39;100.00;64013.03;4981511;28;20065;-59
2024/01/25 10:32:24;;;;;;;73.78;69.32;;;;;;;-143.39;100.00;64013.03;4972958;28;20061;-59
2024/01/25 10:34:52;;;;;;;105.28;98.97;;;;;;;-143.39;100.00;64013.03;4973671;28;20054;-59
2024/01/25 10:37:21;;;;;;;125.45;117.93;;;;;;;-143.39;100.00;64013.03;4970541;28;20050;-59
2024/01/25 10:39:49;;;;;;;108.63;102.03;;;;;;;-143.39;100.00;64013.03;4977339;28;20144;-59
2024/01/25 10:42:16;;;;;;;113.45;106.60;;;;;;;-143.39;100.00;64013.03;4978156;28;20058;-59